sensor_id;sensor_type;location;lat;lon;timestamp;P1;durP1;ratioP1;P2;durP2;ratioP2
43861;SDS011;29510;52.140;5.034;2022-12-26T00:05:10;16.27;;;8.93;;
43861;SDS011;29510;52.140;5.034;2022-12-26T00:15:12;15.88;;;8.55;;
43861;SDS011;29510;52.140;5.034;2022-12-26T00:25:13;15.43;;;9.57;;
43861;SDS011;29510;52.140;5.034;2022-12-26T00:35:14;13.25;;;8.93;;
43861;SDS011;29510;52.140;5.034;2022-12-26T00:45:15;21.30;;;10.98;;
43861;SDS011;29510;52.140;5.034;2022-12-26T00:55:16;20.00;;;9.32;;
43861;SDS011;29510;52.140;5.034;2022-12-26T01:05:17;16.85;;;8.95;;
43861;SDS011;29510;52.140;5.034;2022-12-26T01:15:18;21.50;;;12.30;;
43861;SDS011;29510;52.140;5.034;2022-12-26T01:25:21;15.30;;;9.30;;
43861;SDS011;29510;52.140;5.034;2022-12-26T01:35:22;17.20;;;11.00;;
43861;SDS011;29510;52.140;5.034;2022-12-26T01:45:30;21.58;;;11.60;;
43861;SDS011;29510;52.140;5.034;2022-12-26T01:55:31;23.25;;;11.30;;
43861;SDS011;29510;52.140;5.034;2022-12-26T02:05:33;19.15;;;12.50;;
43861;SDS011;29510;52.140;5.034;2022-12-26T02:15:34;15.50;;;9.40;;
43861;SDS011;29510;52.140;5.034;2022-12-26T02:56:42;13.85;;;8.02;;
43861;SDS011;29510;52.140;5.034;2022-12-26T03:17:33;15.38;;;9.88;;
43861;SDS011;29510;52.140;5.034;2022-12-26T03:27:42;16.50;;;9.63;;
43861;SDS011;29510;52.140;5.034;2022-12-26T03:37:45;20.52;;;10.25;;
43861;SDS011;29510;52.140;5.034;2022-12-26T03:58:26;16.98;;;8.20;;
43861;SDS011;29510;52.140;5.034;2022-12-26T04:08:56;13.45;;;9.30;;
43861;SDS011;29510;52.140;5.034;2022-12-26T04:29:27;12.55;;;5.78;;
43861;SDS011;29510;52.140;5.034;2022-12-26T04:39:48;8.85;;;4.82;;
43861;SDS011;29510;52.140;5.034;2022-12-26T04:50:12;7.50;;;3.45;;
43861;SDS011;29510;52.140;5.034;2022-12-26T05:00:13;6.13;;;3.70;;
43861;SDS011;29510;52.140;5.034;2022-12-26T05:10:19;4.80;;;2.45;;
43861;SDS011;29510;52.140;5.034;2022-12-26T05:20:22;5.40;;;3.60;;
43861;SDS011;29510;52.140;5.034;2022-12-26T05:30:38;3.58;;;2.20;;
43861;SDS011;29510;52.140;5.034;2022-12-26T05:40:39;3.33;;;1.73;;
43861;SDS011;29510;52.140;5.034;2022-12-26T05:50:40;2.65;;;1.50;;
43861;SDS011;29510;52.140;5.034;2022-12-26T06:00:42;6.70;;;2.30;;
43861;SDS011;29510;52.140;5.034;2022-12-26T06:10:43;3.20;;;1.20;;
43861;SDS011;29510;52.140;5.034;2022-12-26T06:20:44;4.07;;;2.08;;
43861;SDS011;29510;52.140;5.034;2022-12-26T06:30:45;4.35;;;2.08;;
43861;SDS011;29510;52.140;5.034;2022-12-26T06:40:46;3.90;;;2.33;;
43861;SDS011;29510;52.140;5.034;2022-12-26T06:50:47;13.73;;;1.98;;
43861;SDS011;29510;52.140;5.034;2022-12-26T07:00:48;4.30;;;2.13;;
43861;SDS011;29510;52.140;5.034;2022-12-26T07:10:49;2.60;;;1.08;;
43861;SDS011;29510;52.140;5.034;2022-12-26T07:20:50;4.20;;;0.75;;
43861;SDS011;29510;52.140;5.034;2022-12-26T07:30:51;4.22;;;1.95;;
43861;SDS011;29510;52.140;5.034;2022-12-26T07:40:55;2.50;;;1.55;;
43861;SDS011;29510;52.140;5.034;2022-12-26T07:51:00;4.50;;;2.47;;
43861;SDS011;29510;52.140;5.034;2022-12-26T08:01:01;3.70;;;1.85;;
43861;SDS011;29510;52.140;5.034;2022-12-26T08:11:04;3.25;;;1.25;;
43861;SDS011;29510;52.140;5.034;2022-12-26T08:21:07;2.38;;;1.00;;
43861;SDS011;29510;52.140;5.034;2022-12-26T08:31:08;3.05;;;1.20;;
43861;SDS011;29510;52.140;5.034;2022-12-26T08:41:11;3.67;;;1.80;;
43861;SDS011;29510;52.140;5.034;2022-12-26T08:51:15;1.85;;;0.65;;
43861;SDS011;29510;52.140;5.034;2022-12-26T09:01:19;2.55;;;1.33;;
43861;SDS011;29510;52.140;5.034;2022-12-26T09:11:22;1.77;;;0.82;;
43861;SDS011;29510;52.140;5.034;2022-12-26T09:21:26;3.05;;;1.08;;
43861;SDS011;29510;52.140;5.034;2022-12-26T09:31:29;1.67;;;0.50;;
43861;SDS011;29510;52.140;5.034;2022-12-26T09:51:58;1.35;;;0.40;;
43861;SDS011;29510;52.140;5.034;2022-12-26T10:02:02;6.68;;;1.48;;
43861;SDS011;29510;52.140;5.034;2022-12-26T10:32:37;2.03;;;0.85;;
43861;SDS011;29510;52.140;5.034;2022-12-26T10:42:43;1.50;;;0.30;;
43861;SDS011;29510;52.140;5.034;2022-12-26T10:52:47;1.30;;;0.65;;
43861;SDS011;29510;52.140;5.034;2022-12-26T11:13:06;2.80;;;1.17;;
43861;SDS011;29510;52.140;5.034;2022-12-26T11:23:29;1.58;;;0.57;;
43861;SDS011;29510;52.140;5.034;2022-12-26T11:33:43;1.42;;;0.38;;
43861;SDS011;29510;52.140;5.034;2022-12-26T11:43:45;1.63;;;0.70;;
43861;SDS011;29510;52.140;5.034;2022-12-26T11:53:48;2.38;;;0.70;;
43861;SDS011;29510;52.140;5.034;2022-12-26T12:03:49;1.98;;;0.50;;
43861;SDS011;29510;52.140;5.034;2022-12-26T12:24:23;0.63;;;0.25;;
43861;SDS011;29510;52.140;5.034;2022-12-26T12:55:36;2.35;;;0.93;;
43861;SDS011;29510;52.140;5.034;2022-12-26T13:06:02;1.10;;;0.35;;
43861;SDS011;29510;52.140;5.034;2022-12-26T13:16:18;1.33;;;0.50;;
43861;SDS011;29510;52.140;5.034;2022-12-26T13:36:49;1.98;;;0.70;;
43861;SDS011;29510;52.140;5.034;2022-12-26T13:46:53;3.63;;;0.98;;
43861;SDS011;29510;52.140;5.034;2022-12-26T14:18:26;2.60;;;1.13;;
43861;SDS011;29510;52.140;5.034;2022-12-26T14:39:37;6.00;;;2.15;;
43861;SDS011;29510;52.140;5.034;2022-12-26T14:49:17;6.18;;;1.17;;
43861;SDS011;29510;52.140;5.034;2022-12-26T14:59:31;4.53;;;1.52;;
43861;SDS011;29510;52.140;5.034;2022-12-26T15:30:16;5.28;;;2.30;;
43861;SDS011;29510;52.140;5.034;2022-12-26T15:40:24;9.00;;;3.92;;
43861;SDS011;29510;52.140;5.034;2022-12-26T16:00:49;3.45;;;1.60;;
43861;SDS011;29510;52.140;5.034;2022-12-26T16:11:07;3.13;;;1.45;;
43861;SDS011;29510;52.140;5.034;2022-12-26T16:21:20;20.27;;;8.45;;
43861;SDS011;29510;52.140;5.034;2022-12-26T16:31:43;7.45;;;3.90;;
43861;SDS011;29510;52.140;5.034;2022-12-26T16:42:02;11.05;;;4.30;;
43861;SDS011;29510;52.140;5.034;2022-12-26T16:52:05;7.90;;;3.97;;
43861;SDS011;29510;52.140;5.034;2022-12-26T17:02:12;2.60;;;1.58;;
43861;SDS011;29510;52.140;5.034;2022-12-26T17:12:30;5.03;;;2.58;;
43861;SDS011;29510;52.140;5.034;2022-12-26T17:22:36;6.32;;;2.30;;
43861;SDS011;29510;52.140;5.034;2022-12-26T17:32:44;5.45;;;1.67;;
43861;SDS011;29510;52.140;5.034;2022-12-26T17:42:47;3.22;;;1.30;;
43861;SDS011;29510;52.140;5.034;2022-12-26T17:52:50;5.78;;;1.38;;
43861;SDS011;29510;52.140;5.034;2022-12-26T18:02:52;5.57;;;2.17;;
43861;SDS011;29510;52.140;5.034;2022-12-26T18:12:53;8.30;;;1.88;;
43861;SDS011;29510;52.140;5.034;2022-12-26T18:22:55;18.20;;;3.03;;
43861;SDS011;29510;52.140;5.034;2022-12-26T18:32:58;3.42;;;0.98;;
43861;SDS011;29510;52.140;5.034;2022-12-26T18:43:00;3.65;;;1.67;;
43861;SDS011;29510;52.140;5.034;2022-12-26T18:53:02;2.20;;;1.20;;
43861;SDS011;29510;52.140;5.034;2022-12-26T19:03:03;6.53;;;3.55;;
43861;SDS011;29510;52.140;5.034;2022-12-26T19:13:04;4.45;;;2.08;;
43861;SDS011;29510;52.140;5.034;2022-12-26T19:23:05;4.25;;;2.05;;
43861;SDS011;29510;52.140;5.034;2022-12-26T19:33:06;8.90;;;1.92;;
43861;SDS011;29510;52.140;5.034;2022-12-26T19:43:07;8.98;;;3.03;;
43861;SDS011;29510;52.140;5.034;2022-12-26T19:53:08;3.75;;;1.40;;
43861;SDS011;29510;52.140;5.034;2022-12-26T20:03:09;2.97;;;1.00;;
43861;SDS011;29510;52.140;5.034;2022-12-26T20:13:10;4.25;;;1.58;;
43861;SDS011;29510;52.140;5.034;2022-12-26T20:23:11;12.52;;;1.30;;
43861;SDS011;29510;52.140;5.034;2022-12-26T20:33:12;9.77;;;2.05;;
43861;SDS011;29510;52.140;5.034;2022-12-26T20:43:13;3.42;;;1.67;;
43861;SDS011;29510;52.140;5.034;2022-12-26T20:53:14;6.30;;;2.90;;
43861;SDS011;29510;52.140;5.034;2022-12-26T21:03:15;2.83;;;1.40;;
43861;SDS011;29510;52.140;5.034;2022-12-26T21:13:16;8.00;;;1.73;;
43861;SDS011;29510;52.140;5.034;2022-12-26T21:23:17;2.03;;;1.25;;
43861;SDS011;29510;52.140;5.034;2022-12-26T21:33:18;4.95;;;1.52;;
43861;SDS011;29510;52.140;5.034;2022-12-26T21:43:19;2.03;;;1.13;;
43861;SDS011;29510;52.140;5.034;2022-12-26T21:53:21;2.28;;;1.10;;
43861;SDS011;29510;52.140;5.034;2022-12-26T22:03:22;1.83;;;0.93;;
43861;SDS011;29510;52.140;5.034;2022-12-26T22:13:42;4.72;;;1.33;;
43861;SDS011;29510;52.140;5.034;2022-12-26T22:23:45;4.18;;;1.77;;
43861;SDS011;29510;52.140;5.034;2022-12-26T22:33:46;2.30;;;1.10;;
43861;SDS011;29510;52.140;5.034;2022-12-26T22:43:52;1.48;;;0.77;;
43861;SDS011;29510;52.140;5.034;2022-12-26T22:53:54;4.82;;;2.15;;
43861;SDS011;29510;52.140;5.034;2022-12-26T23:03:58;6.85;;;3.13;;
43861;SDS011;29510;52.140;5.034;2022-12-26T23:14:00;6.05;;;1.30;;
43861;SDS011;29510;52.140;5.034;2022-12-26T23:24:16;2.28;;;1.38;;
43861;SDS011;29510;52.140;5.034;2022-12-26T23:34:22;3.67;;;1.37;;
43861;SDS011;29510;52.140;5.034;2022-12-26T23:44:23;3.63;;;1.23;;
43861;SDS011;29510;52.140;5.034;2022-12-26T23:54:24;2.05;;;1.00;;
